createdAt,value
2022-09-17T00:01:34.768Z,83.40
2022-09-17T00:04:03.261Z,83.70
2022-09-17T00:06:33.384Z,84.00
2022-09-17T00:09:01.898Z,78.40
2022-09-17T00:11:33.115Z,76.60
2022-09-17T00:14:03.921Z,75.70
2022-09-17T00:16:43.628Z,74.10
2022-09-17T00:19:21.703Z,74.50
2022-09-17T00:21:50.278Z,77.70
2022-09-17T00:24:20.103Z,79.20
2022-09-17T00:26:49.439Z,80.10
2022-09-17T00:29:17.802Z,81.00
2022-09-17T00:31:46.066Z,81.70
2022-09-17T00:34:14.401Z,82.20
2022-09-17T00:36:42.515Z,83.00
2022-09-17T00:39:13.142Z,83.80
2022-09-17T00:41:41.916Z,84.00
2022-09-17T00:44:28.146Z,77.80
2022-09-17T00:46:56.386Z,77.10
2022-09-17T00:49:29.892Z,75.60
2022-09-17T00:52:09.577Z,74.50
2022-09-17T00:54:43.928Z,75.30
2022-09-17T00:57:12.921Z,78.40
2022-09-17T00:59:41.429Z,79.30
2022-09-17T01:02:09.813Z,80.30
2022-09-17T01:04:38.018Z,81.00
2022-09-17T01:07:19.954Z,81.60
2022-09-17T01:09:57.226Z,82.20
2022-09-17T01:13:00.268Z,83.20
2022-09-17T01:15:46.609Z,83.90
2022-09-17T01:18:48.675Z,79.00
2022-09-17T01:21:59.790Z,76.80
2022-09-17T01:24:50.959Z,74.90
2022-09-17T01:27:45.825Z,73.00
2022-09-17T01:30:43.046Z,73.90
2022-09-17T01:33:36.892Z,77.10
2022-09-17T01:36:21.342Z,78.00
2022-09-17T01:39:01.731Z,78.90
2022-09-17T01:41:58.770Z,80.10
2022-09-17T01:44:30.021Z,81.10
2022-09-17T01:47:24.290Z,82.00
2022-09-17T01:50:09.953Z,82.60
2022-09-17T01:52:41.732Z,82.80
2022-09-17T01:55:15.335Z,83.10
2022-09-17T01:57:55.341Z,78.50
2022-09-17T02:00:24.039Z,76.40
2022-09-17T02:02:55.274Z,74.90
2022-09-17T02:05:55.893Z,73.20
2022-09-17T02:08:46.122Z,72.70
2022-09-17T02:11:15.811Z,75.90
2022-09-17T02:14:10.160Z,77.50
2022-09-17T02:16:44.329Z,78.50
2022-09-17T02:19:28.591Z,79.60
2022-09-17T02:22:17.183Z,80.30
2022-09-17T02:24:53.394Z,80.90
2022-09-17T02:27:48.387Z,81.20
2022-09-17T02:30:17.488Z,81.40
2022-09-17T02:32:45.682Z,81.80
2022-09-17T02:35:15.063Z,80.90
2022-09-17T02:37:44.647Z,75.80
2022-09-17T02:40:15.917Z,74.20
2022-09-17T02:43:02.249Z,72.80
2022-09-17T02:45:41.873Z,71.60
2022-09-17T02:48:34.393Z,73.10
2022-09-17T02:51:12.566Z,75.80
2022-09-17T02:54:10.136Z,77.50
2022-09-17T02:57:11.366Z,78.60
2022-09-17T02:59:48.518Z,80.00
2022-09-17T03:02:23.737Z,80.80
2022-09-17T03:04:53.001Z,81.40
2022-09-17T03:07:23.092Z,81.70
2022-09-17T03:09:51.298Z,82.20
2022-09-17T03:12:19.323Z,82.70
2022-09-17T03:14:47.541Z,77.90
2022-09-17T03:17:15.832Z,76.10
2022-09-17T03:19:43.858Z,74.60
2022-09-17T03:22:12.122Z,73.20
2022-09-17T03:24:40.253Z,72.20
2022-09-17T03:27:08.419Z,74.90
2022-09-17T03:29:36.528Z,77.50
2022-09-17T03:32:04.899Z,78.50
2022-09-17T03:34:33.115Z,79.60
2022-09-17T03:37:01.319Z,80.50
2022-09-17T03:39:30.370Z,81.30
2022-09-17T03:41:58.613Z,81.80
2022-09-17T03:44:28.115Z,82.60
2022-09-17T03:46:56.584Z,83.30
2022-09-17T03:49:24.770Z,83.50
2022-09-17T03:51:52.936Z,80.80
2022-09-17T03:54:21.175Z,77.40
2022-09-17T03:56:49.267Z,75.90
2022-09-17T03:59:17.529Z,74.50
2022-09-17T04:01:45.856Z,73.30
2022-09-17T04:04:14.123Z,74.80
2022-09-17T04:06:42.267Z,77.50
2022-09-17T04:09:10.382Z,79.00
2022-09-17T04:11:38.531Z,80.50
2022-09-17T04:14:06.953Z,80.90
2022-09-17T04:16:35.465Z,81.90
2022-09-17T04:19:04.109Z,82.30
2022-09-17T04:21:32.215Z,83.10
2022-09-17T04:24:00.203Z,83.30
2022-09-17T04:26:28.688Z,83.50
2022-09-17T04:28:57.015Z,83.70
2022-09-17T04:31:25.326Z,77.50
2022-09-17T04:33:53.828Z,76.80
2022-09-17T04:36:21.869Z,76.40
2022-09-17T04:38:50.010Z,76.20
2022-09-17T04:41:18.276Z,78.40
2022-09-17T04:43:46.740Z,79.90
2022-09-17T04:46:14.846Z,80.60
2022-09-17T04:48:43.511Z,81.20
2022-09-17T04:51:11.656Z,82.10
2022-09-17T04:53:39.787Z,82.70
2022-09-17T04:56:08.001Z,83.40
2022-09-17T04:58:36.022Z,84.10
2022-09-17T05:01:04.420Z,84.40
2022-09-17T05:03:32.511Z,84.80
2022-09-17T05:06:00.638Z,79.20
2022-09-17T05:08:28.799Z,78.10
2022-09-17T05:10:57.191Z,77.20
2022-09-17T05:13:25.256Z,76.00
2022-09-17T05:15:55.604Z,76.80
2022-09-17T05:18:24.109Z,79.70
2022-09-17T05:20:52.467Z,80.80
2022-09-17T05:23:22.625Z,81.60
2022-09-17T05:25:50.754Z,82.20
2022-09-17T05:28:19.011Z,83.00
2022-09-17T05:30:47.118Z,83.70
2022-09-17T05:33:15.135Z,84.30
2022-09-17T05:35:43.938Z,84.80
2022-09-17T05:38:11.791Z,85.20
2022-09-17T05:40:40.039Z,81.50
2022-09-17T05:43:08.380Z,78.50
2022-09-17T05:45:37.412Z,77.00
2022-09-17T05:48:07.467Z,75.40
2022-09-17T05:50:35.596Z,75.80
2022-09-17T05:53:16.751Z,78.20
2022-09-17T05:55:44.950Z,80.30
2022-09-17T05:58:18.288Z,80.50
2022-09-17T06:00:47.461Z,81.60
2022-09-17T06:03:17.446Z,82.50
2022-09-17T06:05:54.968Z,83.00
2022-09-17T06:08:23.746Z,83.80
2022-09-17T06:10:51.460Z,84.10
2022-09-17T06:13:20.936Z,84.20
2022-09-17T06:15:53.713Z,84.60
2022-09-17T06:18:22.689Z,84.90
2022-09-17T06:21:08.595Z,79.40
2022-09-17T06:23:36.889Z,77.70
2022-09-17T06:26:06.560Z,76.10
2022-09-17T06:28:39.155Z,75.30
2022-09-17T06:31:11.394Z,75.90
2022-09-17T06:33:39.919Z,79.40
2022-09-17T06:36:13.681Z,80.40
2022-09-17T06:38:43.335Z,81.40
2022-09-17T06:41:11.139Z,82.30
2022-09-17T06:43:39.359Z,82.80
2022-09-17T06:46:07.726Z,83.70
2022-09-17T06:48:37.995Z,83.90
2022-09-17T06:51:09.448Z,84.50
2022-09-17T06:53:38.794Z,84.80
2022-09-17T06:56:09.706Z,85.00
2022-09-17T06:58:38.352Z,83.00
2022-09-17T07:01:06.844Z,78.40
2022-09-17T07:03:35.695Z,77.10
2022-09-17T07:06:04.713Z,75.70
2022-09-17T07:08:35.707Z,76.30
2022-09-17T07:11:03.911Z,78.90
2022-09-17T07:13:31.978Z,79.60
2022-09-17T07:16:02.484Z,80.40
2022-09-17T07:18:30.702Z,81.60
2022-09-17T07:21:01.349Z,82.60
2022-09-17T07:23:34.990Z,83.00
2022-09-17T07:26:06.480Z,83.60
2022-09-17T07:28:35.230Z,84.10
2022-09-17T07:31:06.581Z,84.40
2022-09-17T07:33:36.372Z,84.90
2022-09-17T07:36:11.009Z,85.50
2022-09-17T07:38:39.280Z,81.20
2022-09-17T07:41:08.303Z,78.10
2022-09-17T07:43:37.045Z,77.40
2022-09-17T07:46:06.346Z,76.60
2022-09-17T07:48:34.611Z,77.00
2022-09-17T07:51:02.915Z,80.30
2022-09-17T07:53:31.052Z,81.00
2022-09-17T07:56:00.747Z,81.60
2022-09-17T07:58:33.868Z,82.20
2022-09-17T08:01:07.360Z,83.00
2022-09-17T08:03:36.431Z,83.50
2022-09-17T08:06:07.985Z,83.90
2022-09-17T08:08:37.852Z,84.50
2022-09-17T08:11:08.869Z,84.70
2022-09-17T08:13:38.011Z,84.80
2022-09-17T08:16:09.068Z,79.20
2022-09-17T08:18:37.623Z,77.90
2022-09-17T08:21:07.592Z,76.00
2022-09-17T08:23:37.851Z,74.60
2022-09-17T08:26:06.705Z,74.50
2022-09-17T08:28:35.686Z,77.70
2022-09-17T08:31:06.473Z,78.90
2022-09-17T08:33:39.805Z,79.70
2022-09-17T08:36:10.977Z,80.80
2022-09-17T08:38:39.852Z,81.90
2022-09-17T08:41:10.891Z,82.30
2022-09-17T08:44:01.019Z,83.10
2022-09-17T08:46:33.175Z,83.60
2022-09-17T08:49:25.196Z,83.90
2022-09-17T08:52:10.712Z,82.70
2022-09-17T08:55:05.314Z,78.30
2022-09-17T08:57:41.661Z,76.20
2022-09-17T09:00:17.480Z,73.80
2022-09-17T09:03:14.547Z,72.80
2022-09-17T09:05:49.218Z,73.40
2022-09-17T09:08:33.779Z,76.60
2022-09-17T09:11:15.291Z,77.90
2022-09-17T09:13:47.826Z,78.90
2022-09-17T09:16:21.297Z,79.90
2022-09-17T09:18:54.794Z,81.10
2022-09-17T09:21:35.671Z,81.80
2022-09-17T09:24:20.685Z,82.60
2022-09-17T09:27:04.598Z,83.50
2022-09-17T09:29:48.855Z,81.40
2022-09-17T09:32:35.673Z,76.60
2022-09-17T09:35:23.805Z,75.10
2022-09-17T09:38:35.010Z,77.90
2022-09-17T09:41:48.561Z,80.70
2022-09-17T09:44:17.962Z,82.40
2022-09-17T09:47:03.810Z,82.40
2022-09-17T09:49:38.662Z,77.40
2022-09-17T09:52:49.207Z,76.60
2022-09-17T09:55:48.138Z,77.50
2022-09-17T09:58:32.054Z,80.20
2022-09-17T10:01:00.364Z,82.00
2022-09-17T10:03:31.360Z,83.40
2022-09-17T10:06:08.012Z,79.70
2022-09-17T10:08:39.384Z,77.80
2022-09-17T10:11:37.831Z,76.50
2022-09-17T10:14:25.011Z,78.70
2022-09-17T10:17:20.482Z,81.40
2022-09-17T10:20:00.835Z,82.90
2022-09-17T10:22:31.065Z,80.90
2022-09-17T10:25:01.665Z,78.60
2022-09-17T10:27:31.051Z,77.00
2022-09-17T10:30:15.812Z,76.90
2022-09-17T10:32:44.925Z,79.90
2022-09-17T10:35:15.845Z,81.80
2022-09-17T10:37:48.272Z,83.40
2022-09-17T10:40:19.586Z,81.30
2022-09-17T10:42:57.741Z,78.40
2022-09-17T10:45:31.054Z,76.20
2022-09-17T10:48:01.022Z,76.10
2022-09-17T10:50:34.533Z,79.00
2022-09-17T10:53:08.192Z,79.90
2022-09-17T10:56:21.216Z,81.20
2022-09-17T17:38:00.766Z,71.10
2022-09-17T17:40:29.226Z,70.10
2022-09-17T17:42:57.562Z,69.30
2022-09-17T17:45:25.704Z,70.30
2022-09-17T17:47:53.904Z,72.50
2022-09-17T17:50:22.264Z,75.50
2022-09-17T17:52:50.443Z,77.50
2022-09-17T17:55:18.771Z,79.60
2022-09-17T17:57:46.858Z,80.60
2022-09-17T18:00:15.506Z,76.80
2022-09-17T18:02:43.532Z,75.20
2022-09-17T18:05:11.823Z,73.70
2022-09-17T18:07:40.001Z,72.40
2022-09-17T18:10:08.594Z,71.50
2022-09-17T18:12:36.593Z,71.10
2022-09-17T18:15:06.915Z,73.50
2022-09-17T18:17:35.306Z,76.40
2022-09-17T18:20:04.420Z,79.20
2022-09-17T18:22:32.533Z,81.50
2022-09-17T18:25:00.839Z,82.10
2022-09-17T18:27:29.167Z,78.70
2022-09-17T18:29:57.338Z,77.70
2022-09-17T18:32:25.650Z,76.60
2022-09-17T18:34:53.795Z,76.00
2022-09-17T18:37:21.865Z,75.80
2022-09-17T18:39:58.856Z,75.00
2022-09-17T18:42:27.295Z,75.00
2022-09-17T18:44:55.585Z,77.10
2022-09-17T18:47:23.795Z,80.00
2022-09-17T18:49:52.063Z,79.30
2022-09-17T18:52:20.361Z,77.20
2022-09-17T18:54:48.508Z,75.40
2022-09-17T18:57:16.858Z,76.50
2022-09-17T18:59:45.070Z,80.40
2022-09-17T19:02:13.367Z,80.20
2022-09-17T19:04:41.933Z,77.00
2022-09-17T19:07:10.271Z,75.70
2022-09-17T19:09:38.830Z,75.00
2022-09-17T19:12:07.679Z,74.10
2022-09-17T19:14:36.140Z,73.40
2022-09-17T19:17:04.791Z,73.20
2022-09-17T19:19:33.024Z,73.20
2022-09-17T19:22:01.482Z,75.00
2022-09-17T19:24:29.773Z,77.40
2022-09-17T19:26:58.430Z,79.20
2022-09-17T19:29:26.857Z,79.60
2022-09-17T19:31:55.335Z,75.70
2022-09-17T19:34:23.889Z,73.70
2022-09-17T19:36:52.350Z,73.40
2022-09-17T19:39:20.916Z,76.00
2022-09-17T19:41:49.341Z,78.30
2022-09-17T19:44:17.790Z,77.80
2022-09-17T19:46:46.384Z,74.40
2022-09-17T19:49:14.741Z,73.10
2022-09-17T19:51:43.277Z,72.70
2022-09-17T19:54:11.426Z,72.20
2022-09-17T19:56:39.785Z,71.70
2022-09-17T19:59:08.332Z,71.40
2022-09-17T20:01:37.072Z,71.60
2022-09-17T20:04:06.218Z,75.10
2022-09-17T20:06:35.830Z,78.50
2022-09-17T20:09:04.593Z,80.80
2022-09-17T20:11:33.225Z,80.20
2022-09-17T20:14:03.413Z,76.60
2022-09-17T20:16:32.128Z,74.70
2022-09-17T20:19:01.276Z,75.40
2022-09-17T20:22:17.835Z,79.10
2022-09-17T20:24:50.820Z,81.10
2022-09-17T20:27:19.489Z,79.50
2022-09-17T20:29:47.923Z,76.90
2022-09-17T20:32:16.304Z,74.90
2022-09-17T20:34:44.744Z,73.80
2022-09-17T20:37:13.994Z,71.90
2022-09-17T20:39:42.627Z,70.80
2022-09-17T20:42:10.859Z,70.00
2022-09-17T20:44:39.108Z,72.50
2022-09-17T20:47:07.526Z,74.50
2022-09-17T20:49:36.100Z,75.70
2022-09-17T20:52:04.692Z,76.80
2022-09-17T20:54:33.033Z,77.60
2022-09-17T20:57:01.495Z,74.00
2022-09-17T20:59:30.097Z,71.20
2022-09-17T21:01:58.482Z,69.80
2022-09-17T21:04:27.209Z,71.90
2022-09-17T21:06:55.213Z,74.30
2022-09-17T21:09:23.649Z,75.40
2022-09-17T21:11:52.107Z,76.50
2022-09-17T21:14:20.521Z,77.30
2022-09-17T21:16:48.890Z,77.90
2022-09-17T21:19:17.452Z,74.20
2022-09-17T21:21:45.980Z,72.60
2022-09-17T21:24:14.411Z,71.70
2022-09-17T21:26:42.896Z,70.80
2022-09-17T21:29:11.142Z,70.60
2022-09-17T21:31:39.989Z,70.80
2022-09-17T21:34:08.948Z,70.70
2022-09-17T21:36:39.334Z,74.30
2022-09-17T21:39:13.802Z,77.40
2022-09-17T21:41:43.421Z,79.10
2022-09-17T21:44:12.956Z,80.40
2022-09-17T21:46:42.743Z,77.50
2022-09-17T21:49:11.902Z,74.50
2022-09-17T21:51:44.505Z,73.30
2022-09-17T21:54:15.043Z,75.80
2022-09-17T21:56:44.870Z,77.90
2022-09-17T21:59:14.789Z,78.40
2022-09-17T22:01:49.190Z,79.70
2022-09-17T22:04:20.376Z,79.80
2022-09-17T22:06:50.426Z,75.30
2022-09-17T22:09:25.019Z,73.80
2022-09-17T22:11:54.104Z,71.90
2022-09-17T22:14:24.901Z,70.20
2022-09-17T22:16:57.276Z,69.30
2022-09-17T22:19:26.567Z,68.30
2022-09-17T22:21:56.199Z,69.80
2022-09-17T22:24:25.092Z,72.30
2022-09-17T22:26:57.822Z,73.90
2022-09-17T22:29:28.541Z,75.00
2022-09-17T22:31:56.847Z,75.90
2022-09-17T22:34:25.214Z,76.70
2022-09-17T22:36:53.664Z,73.00
2022-09-17T22:39:25.270Z,70.60
2022-09-17T22:41:53.746Z,69.20
2022-09-17T22:44:22.068Z,72.20
2022-09-17T22:46:52.361Z,74.30
2022-09-17T22:49:20.983Z,75.60
2022-09-17T22:51:49.265Z,76.40
2022-09-17T22:54:19.227Z,76.40
2022-09-17T22:56:48.405Z,71.80
2022-09-17T22:59:17.326Z,69.40
2022-09-17T23:01:45.486Z,68.00
2022-09-17T23:04:14.253Z,67.40
2022-09-17T23:06:42.261Z,66.60
2022-09-17T23:09:12.563Z,66.20
2022-09-17T23:11:40.871Z,68.90
2022-09-17T23:14:12.163Z,71.10
2022-09-17T23:16:46.090Z,72.60
2022-09-17T23:19:16.211Z,73.90
2022-09-17T23:21:45.552Z,75.10
2022-09-17T23:24:21.074Z,76.00
2022-09-17T23:26:50.277Z,76.70
2022-09-17T23:29:18.669Z,76.10
2022-09-17T23:31:47.167Z,71.10
2022-09-17T23:34:15.422Z,68.80
2022-09-17T23:36:43.487Z,69.30
2022-09-17T23:39:12.851Z,73.00
2022-09-17T23:41:42.652Z,74.90
2022-09-17T23:44:15.260Z,75.80
2022-09-17T23:46:46.039Z,76.80
2022-09-17T23:49:15.125Z,77.60
2022-09-17T23:51:43.376Z,78.40
2022-09-17T23:54:11.877Z,76.40
2022-09-17T23:56:40.070Z,71.70
2022-09-17T23:59:08.339Z,70.20
